createdAt,value
2023-04-11T00:00:35.387Z,12.18
2023-04-11T00:03:01.970Z,12.18
2023-04-11T00:05:31.173Z,12.16
2023-04-11T00:07:57.719Z,12.19
2023-04-11T00:10:24.425Z,12.18
2023-04-11T00:12:50.906Z,12.17
2023-04-11T00:15:17.461Z,12.16
2023-04-11T00:17:45.741Z,12.15
2023-04-11T00:20:12.974Z,12.04
2023-04-11T00:22:39.681Z,12.08
2023-04-11T00:25:07.129Z,12.03
2023-04-11T00:27:33.592Z,12.02
2023-04-11T00:30:00.749Z,11.97
2023-04-11T00:32:27.813Z,11.94
2023-04-11T00:34:55.257Z,11.93
2023-04-11T00:37:22.124Z,11.93
2023-04-11T00:39:52.981Z,11.88
2023-04-11T00:42:19.848Z,11.88
2023-04-11T00:44:46.731Z,11.88
2023-04-11T00:47:13.692Z,11.89
2023-04-11T00:49:41.150Z,11.89
2023-04-11T00:52:08.156Z,11.88
2023-04-11T00:54:35.207Z,11.86
2023-04-11T00:57:03.223Z,11.86
2023-04-11T00:59:31.901Z,11.83
2023-04-11T01:01:59.183Z,11.80
2023-04-11T01:04:26.323Z,11.77
2023-04-11T01:06:59.858Z,11.73
2023-04-11T01:09:28.614Z,11.71
2023-04-11T01:11:56.277Z,11.71
2023-04-11T01:14:25.437Z,11.69
2023-04-11T01:16:52.521Z,11.67
2023-04-11T01:19:20.754Z,11.65
2023-04-11T01:21:49.662Z,11.59
2023-04-11T01:24:16.304Z,11.61
2023-04-11T01:26:42.888Z,11.60
2023-04-11T01:29:09.836Z,11.60
2023-04-11T01:31:36.314Z,11.57
2023-04-11T01:34:04.372Z,11.54
2023-04-11T01:36:32.187Z,11.50
2023-04-11T01:38:59.312Z,11.53
2023-04-11T01:41:29.310Z,11.52
2023-04-11T01:43:56.386Z,11.49
2023-04-11T01:46:24.570Z,11.47
2023-04-11T01:48:54.785Z,11.49
2023-04-11T01:51:21.549Z,11.51
2023-04-11T01:53:48.030Z,11.51
2023-04-11T01:56:14.784Z,11.51
2023-04-11T01:58:41.925Z,11.48
2023-04-11T02:01:08.750Z,11.48
2023-04-11T02:03:36.855Z,11.46
2023-04-11T02:06:04.267Z,11.46
2023-04-11T02:08:31.024Z,11.44
2023-04-11T02:10:57.433Z,11.40
2023-04-11T02:13:23.907Z,11.39
2023-04-11T02:15:50.485Z,11.37
2023-04-11T02:18:17.845Z,11.38
2023-04-11T02:20:44.545Z,11.35
2023-04-11T02:23:12.641Z,11.32
2023-04-11T02:25:39.244Z,11.28
2023-04-11T02:28:07.990Z,11.25
2023-04-11T02:30:34.672Z,11.22
2023-04-11T02:33:01.590Z,11.20
2023-04-11T02:35:28.097Z,11.17
2023-04-11T02:37:54.508Z,11.11
2023-04-11T02:40:20.912Z,11.06
2023-04-11T02:42:47.449Z,11.04
2023-04-11T02:45:16.437Z,11.01
2023-04-11T02:47:42.915Z,11.03
2023-04-11T02:50:10.826Z,11.02
2023-04-11T02:52:47.690Z,11.01
2023-04-11T02:55:15.220Z,10.63
2023-04-11T02:57:41.751Z,11.02
2023-04-11T03:00:11.992Z,11.05
2023-04-11T03:02:46.900Z,11.05
2023-04-11T03:05:15.525Z,11.04
2023-04-11T03:07:46.897Z,11.01
2023-04-11T03:10:13.351Z,10.95
2023-04-11T03:12:40.263Z,10.91
2023-04-11T03:15:09.080Z,10.89
2023-04-11T03:17:35.766Z,10.87
2023-04-11T03:20:07.092Z,10.86
2023-04-11T03:22:34.341Z,10.83
2023-04-11T03:25:01.033Z,10.83
2023-04-11T03:27:27.450Z,10.78
2023-04-11T03:29:58.833Z,10.77
2023-04-11T03:32:33.279Z,10.75
2023-04-11T03:35:01.802Z,10.74
2023-04-11T03:37:28.720Z,10.71
2023-04-11T03:39:55.132Z,10.69
2023-04-11T03:42:22.023Z,10.66
2023-04-11T03:44:53.492Z,10.66
2023-04-11T03:47:20.795Z,10.64
2023-04-11T03:49:48.398Z,10.61
2023-04-11T03:52:17.409Z,10.52
2023-04-11T03:54:47.807Z,10.40
2023-04-11T03:57:14.869Z,10.27
2023-04-11T03:59:41.458Z,10.14
2023-04-11T04:02:10.991Z,10.03
2023-04-11T04:04:48.553Z,9.93
2023-04-11T04:07:23.762Z,9.86
2023-04-11T04:09:53.908Z,9.75
2023-04-11T04:12:21.439Z,9.66
2023-04-11T04:15:04.115Z,9.58
2023-04-11T04:17:31.193Z,9.48
2023-04-11T04:19:58.714Z,9.43
2023-04-11T04:22:26.543Z,9.37
2023-04-11T04:24:57.948Z,9.34
2023-04-11T04:27:27.786Z,9.28
2023-04-11T04:30:03.775Z,9.24
2023-04-11T04:32:41.118Z,9.18
2023-04-11T04:35:11.765Z,9.13
2023-04-11T04:37:45.288Z,9.08
2023-04-11T04:40:20.547Z,9.06
2023-04-11T04:42:58.671Z,8.99
2023-04-11T04:45:36.067Z,8.97
2023-04-11T04:48:02.765Z,8.94
2023-04-11T04:50:29.174Z,8.91
2023-04-11T04:52:55.883Z,8.90
2023-04-11T04:55:22.275Z,8.89
2023-04-11T04:57:50.390Z,8.85
2023-04-11T05:00:17.224Z,8.85
2023-04-11T05:02:45.094Z,8.79
2023-04-11T05:05:13.902Z,8.79
2023-04-11T05:07:40.846Z,8.78
2023-04-11T05:10:07.913Z,8.79
2023-04-11T05:12:35.545Z,8.78
2023-04-11T05:15:11.316Z,8.77
2023-04-11T05:17:39.509Z,8.78
2023-04-11T05:20:08.870Z,8.77
2023-04-11T05:22:37.843Z,8.82
2023-04-11T05:25:05.420Z,8.81
2023-04-11T05:27:32.310Z,8.76
2023-04-11T05:30:01.004Z,8.78
2023-04-11T05:32:34.400Z,8.75
2023-04-11T05:35:01.156Z,8.74
2023-04-11T05:37:37.198Z,8.73
2023-04-11T05:40:03.926Z,8.72
2023-04-11T05:42:30.332Z,8.70
2023-04-11T05:44:58.988Z,8.64
2023-04-11T05:47:25.498Z,8.57
2023-04-11T05:49:51.914Z,8.52
2023-04-11T05:52:18.357Z,8.48
2023-04-11T05:54:44.767Z,8.37
2023-04-11T05:57:11.189Z,8.36
2023-04-11T05:59:37.746Z,8.29
2023-04-11T06:02:04.380Z,8.24
2023-04-11T06:04:31.060Z,8.17
2023-04-11T06:06:58.052Z,8.03
2023-04-11T06:09:24.553Z,7.94
2023-04-11T06:11:51.112Z,7.89
2023-04-11T06:14:17.576Z,7.82
2023-04-11T06:16:44.088Z,7.77
2023-04-11T06:19:10.613Z,7.73
2023-04-11T06:21:37.027Z,7.65
2023-04-11T06:24:09.230Z,7.57
2023-04-11T06:26:35.786Z,7.51
2023-04-11T06:29:06.261Z,7.43
2023-04-11T06:31:33.462Z,7.38
2023-04-11T06:34:03.343Z,7.37
2023-04-11T06:36:30.041Z,7.39
2023-04-11T06:38:56.658Z,7.35
2023-04-11T06:41:23.374Z,7.29
2023-04-11T06:43:49.814Z,7.26
2023-04-11T06:46:16.345Z,7.27
2023-04-11T06:48:42.844Z,7.29
2023-04-11T06:51:10.411Z,7.29
2023-04-11T06:53:36.925Z,7.29
2023-04-11T06:56:03.451Z,7.28
2023-04-11T06:58:30.061Z,7.31
2023-04-11T07:00:56.459Z,7.34
2023-04-11T07:03:25.200Z,7.35
2023-04-11T07:05:52.110Z,7.36
2023-04-11T07:08:18.604Z,7.36
2023-04-11T07:10:45.193Z,7.40
2023-04-11T07:13:11.603Z,7.46
2023-04-11T07:15:38.005Z,7.49
2023-04-11T07:18:04.526Z,7.50
2023-04-11T07:20:34.286Z,7.48
2023-04-11T07:23:00.851Z,7.49
2023-04-11T07:25:30.460Z,7.47
2023-04-11T07:27:57.096Z,7.56
2023-04-11T07:30:23.595Z,7.65
2023-04-11T07:32:50.042Z,7.79
2023-04-11T07:35:16.863Z,7.84
2023-04-11T07:37:43.504Z,7.81
2023-04-11T07:40:12.084Z,7.87
2023-04-11T07:42:38.533Z,7.90
2023-04-11T07:45:06.117Z,7.93
2023-04-11T07:47:32.576Z,7.97
2023-04-11T07:49:59.080Z,8.05
2023-04-11T07:52:25.986Z,8.10
2023-04-11T07:54:52.495Z,8.16
2023-04-11T07:57:18.927Z,8.19
2023-04-11T07:59:46.253Z,8.21
2023-04-11T08:02:13.031Z,8.24
2023-04-11T08:04:39.544Z,8.29
2023-04-11T08:07:06.789Z,8.31
2023-04-11T08:09:34.254Z,8.29
2023-04-11T08:12:01.682Z,8.34
2023-04-11T08:14:28.154Z,8.47
2023-04-11T08:16:54.597Z,8.55
2023-04-11T08:19:21.243Z,8.59
2023-04-11T08:21:47.728Z,8.62
2023-04-11T08:24:14.184Z,8.73
2023-04-11T08:26:40.738Z,8.88
2023-04-11T08:29:11.422Z,8.91
2023-04-11T08:31:42.487Z,9.00
2023-04-11T08:34:09.214Z,8.99
2023-04-11T08:36:35.896Z,9.03
2023-04-11T08:39:02.412Z,9.13
2023-04-11T08:41:30.646Z,9.24
2023-04-11T08:43:58.190Z,9.26
2023-04-11T08:46:25.080Z,9.30
2023-04-11T08:48:51.540Z,9.33
2023-04-11T08:51:23.826Z,9.36
2023-04-11T08:53:53.925Z,9.34
2023-04-11T08:56:20.452Z,9.37
2023-04-11T08:58:48.030Z,9.44
2023-04-11T09:01:34.094Z,9.58
2023-04-11T09:04:05.432Z,9.50
2023-04-11T09:06:33.649Z,9.42
2023-04-11T09:09:01.583Z,9.36
2023-04-11T09:11:28.081Z,9.28
2023-04-11T09:14:11.163Z,9.19
2023-04-11T09:16:52.887Z,9.19
2023-04-11T09:19:27.117Z,9.24
2023-04-11T09:21:54.873Z,9.26
2023-04-11T09:24:22.181Z,9.33
2023-04-11T09:26:48.923Z,9.36
2023-04-11T09:29:36.977Z,9.40
2023-04-11T09:32:03.613Z,9.48
2023-04-11T09:34:30.017Z,9.57
2023-04-11T09:36:56.522Z,9.50
2023-04-11T09:39:23.208Z,9.61
2023-04-11T09:41:49.789Z,9.72
2023-04-11T09:44:16.265Z,9.72
2023-04-11T09:47:09.612Z,9.87
2023-04-11T09:49:36.654Z,9.86
2023-04-11T09:52:03.709Z,9.84
2023-04-11T09:54:31.889Z,9.93
2023-04-11T09:56:59.028Z,9.93
2023-04-11T09:59:26.906Z,10.02
2023-04-11T10:01:53.391Z,10.11
2023-04-11T10:04:20.420Z,10.22
2023-04-11T10:07:12.476Z,10.31
2023-04-11T10:09:42.116Z,10.37
2023-04-11T10:12:08.978Z,10.57
2023-04-11T10:14:38.197Z,10.81
2023-04-11T10:17:31.715Z,10.85
2023-04-11T10:19:58.132Z,10.92
2023-04-11T10:22:43.405Z,11.19
2023-04-11T10:25:17.430Z,11.43
2023-04-11T10:28:00.614Z,11.61
2023-04-11T10:30:39.312Z,11.65
2023-04-11T10:33:14.262Z,11.72
2023-04-11T10:35:58.051Z,11.61
2023-04-11T10:38:36.936Z,11.44
2023-04-11T10:41:33.922Z,11.16
2023-04-11T10:44:21.037Z,10.93
2023-04-11T10:46:53.820Z,10.85
2023-04-11T10:49:34.959Z,10.79
2023-04-11T10:52:16.926Z,10.64
2023-04-11T10:54:44.747Z,10.58
2023-04-11T10:57:11.200Z,10.65
2023-04-11T10:59:37.560Z,10.76
2023-04-11T11:02:04.104Z,10.88
2023-04-11T11:04:35.987Z,11.00
2023-04-11T11:07:04.234Z,11.22
2023-04-11T11:09:31.495Z,11.37
2023-04-11T11:12:15.069Z,11.38
2023-04-11T11:14:43.763Z,11.42
2023-04-11T11:17:12.018Z,11.33
2023-04-11T11:19:43.827Z,11.21
2023-04-11T11:22:26.500Z,11.08
2023-04-11T11:24:53.316Z,10.94
2023-04-11T11:27:22.456Z,10.89
2023-04-11T11:29:49.004Z,10.74
2023-04-11T11:32:28.730Z,10.70
2023-04-11T11:34:57.331Z,10.65
2023-04-11T11:37:23.912Z,10.72
2023-04-11T11:39:51.238Z,10.96
2023-04-11T11:42:18.208Z,11.09
2023-04-11T11:44:44.610Z,11.21
2023-04-11T11:47:14.906Z,11.24
2023-04-11T11:49:50.217Z,11.54
2023-04-11T11:52:33.047Z,11.92
2023-04-11T11:55:00.382Z,12.29
2023-04-11T11:57:27.729Z,12.59
2023-04-11T12:00:00.257Z,12.93
2023-04-11T12:02:27.709Z,13.02
2023-04-11T12:05:00.080Z,13.00
2023-04-11T12:07:30.297Z,12.75
2023-04-11T12:10:01.578Z,12.76
2023-04-11T12:12:38.637Z,12.50
2023-04-11T12:15:16.846Z,11.87
2023-04-11T12:17:47.723Z,11.43
2023-04-11T12:20:15.729Z,11.00
2023-04-11T12:22:42.456Z,10.60
2023-04-11T12:25:10.305Z,10.52
2023-04-11T12:27:38.135Z,10.71
2023-04-11T12:30:05.263Z,10.87
2023-04-11T12:32:35.357Z,11.05
2023-04-11T12:35:03.450Z,11.28
2023-04-11T12:37:30.621Z,11.34
2023-04-11T12:39:57.022Z,11.40
2023-04-11T12:42:26.911Z,11.37
2023-04-11T12:44:54.265Z,11.38
2023-04-11T12:47:20.710Z,11.35
2023-04-11T12:49:47.130Z,11.39
2023-04-11T12:52:13.551Z,11.45
2023-04-11T12:54:39.987Z,11.48
2023-04-11T12:57:07.564Z,11.53
2023-04-11T12:59:34.098Z,11.65
2023-04-11T13:02:00.653Z,11.70
2023-04-11T13:04:27.404Z,11.78
2023-04-11T13:06:53.911Z,11.93
2023-04-11T13:09:20.879Z,11.95
2023-04-11T13:11:47.368Z,11.93
2023-04-11T13:14:13.764Z,11.93
2023-04-11T13:16:40.217Z,11.93
2023-04-11T13:19:06.692Z,12.03
2023-04-11T13:21:33.361Z,11.96
2023-04-11T13:23:59.750Z,11.99
2023-04-11T13:26:26.521Z,12.08
2023-04-11T13:28:52.947Z,12.10
2023-04-11T13:31:19.469Z,12.08
2023-04-11T13:33:47.879Z,12.05
2023-04-11T13:36:14.359Z,12.00
2023-04-11T13:38:41.172Z,12.00
2023-04-11T13:41:07.634Z,12.11
2023-04-11T13:43:34.123Z,12.15
2023-04-11T13:46:00.737Z,12.27
2023-04-11T13:48:27.202Z,12.30
2023-04-11T13:50:57.345Z,12.39
2023-04-11T13:53:24.265Z,12.56
2023-04-11T13:55:51.213Z,12.73
2023-04-11T13:58:18.219Z,12.68
2023-04-11T14:00:45.026Z,12.68
2023-04-11T14:03:11.911Z,12.88
2023-04-11T14:05:38.967Z,12.96
2023-04-11T14:08:06.226Z,13.19
2023-04-11T14:10:33.306Z,13.65
2023-04-11T14:13:00.968Z,13.95
2023-04-11T14:15:27.454Z,14.18
2023-04-11T14:17:54.060Z,14.27
2023-04-11T14:20:20.793Z,13.80
2023-04-11T14:22:47.291Z,13.37
2023-04-11T14:25:13.840Z,13.37
2023-04-11T14:27:41.430Z,13.78
2023-04-11T14:30:09.660Z,13.62
2023-04-11T14:32:36.309Z,13.55
2023-04-11T14:35:04.823Z,13.99
2023-04-11T14:37:34.741Z,14.47
2023-04-11T14:40:01.749Z,14.72
2023-04-11T14:42:28.186Z,14.89
2023-04-11T14:44:54.650Z,14.73
2023-04-11T14:47:21.240Z,14.45
2023-04-11T14:49:47.698Z,14.19
2023-04-11T14:52:14.228Z,14.10
2023-04-11T14:54:40.630Z,13.80
2023-04-11T14:57:07.031Z,13.51
2023-04-11T14:59:33.439Z,13.26
2023-04-11T15:02:00.008Z,13.02
2023-04-11T15:04:26.624Z,12.83
2023-04-11T15:06:53.167Z,13.00
2023-04-11T15:09:22.589Z,13.25
2023-04-11T15:11:48.978Z,13.17
2023-04-11T15:14:15.685Z,13.06
2023-04-11T15:16:42.152Z,13.17
2023-04-11T15:19:11.302Z,13.14
2023-04-11T15:21:38.360Z,13.10
2023-04-11T15:24:07.235Z,13.47
2023-04-11T15:26:34.112Z,13.69
2023-04-11T15:29:00.738Z,13.91
2023-04-11T15:31:27.350Z,13.91
2023-04-11T15:33:57.178Z,13.80
2023-04-11T15:36:24.072Z,13.81
2023-04-11T15:38:50.520Z,13.84
2023-04-11T15:41:17.222Z,13.84
2023-04-11T15:43:43.923Z,13.69
2023-04-11T15:46:10.342Z,13.65
2023-04-11T15:48:36.817Z,13.66
2023-04-11T15:51:10.751Z,13.42
2023-04-11T15:53:37.414Z,13.48
2023-04-11T15:56:06.040Z,13.62
2023-04-11T15:58:33.817Z,13.69
2023-04-11T16:01:01.615Z,13.69
2023-04-11T16:03:31.680Z,13.80
2023-04-11T16:05:58.958Z,13.84
2023-04-11T16:08:27.014Z,13.98
2023-04-11T16:10:54.361Z,14.27
2023-04-11T16:13:20.997Z,14.35
2023-04-11T16:15:47.397Z,14.32
2023-04-11T16:18:13.859Z,14.43
2023-04-11T16:20:40.374Z,14.55
2023-04-11T16:23:06.783Z,14.52
2023-04-11T16:25:33.164Z,14.50
2023-04-11T16:27:59.612Z,14.53
2023-04-11T16:30:27.752Z,14.58
2023-04-11T16:32:54.394Z,14.51
2023-04-11T16:35:20.986Z,14.39
2023-04-11T16:37:47.401Z,14.02
2023-04-11T16:40:13.853Z,13.61
2023-04-11T16:42:40.395Z,13.52
2023-04-11T16:45:07.755Z,13.32
2023-04-11T16:47:34.533Z,13.10
2023-04-11T16:50:01.077Z,13.06
2023-04-11T16:52:28.177Z,12.99
2023-04-11T16:54:54.592Z,12.83
2023-04-11T16:57:20.972Z,12.67
2023-04-11T16:59:47.354Z,12.51
2023-04-11T17:02:13.833Z,12.40
2023-04-11T17:04:40.359Z,12.24
2023-04-11T17:07:06.967Z,12.09
2023-04-11T17:09:33.360Z,11.88
2023-04-11T17:12:02.045Z,11.71
2023-04-11T17:14:28.721Z,11.57
2023-04-11T17:16:55.411Z,11.46
2023-04-11T17:19:23.145Z,11.35
2023-04-11T17:21:50.670Z,11.22
2023-04-11T17:24:17.038Z,11.12
2023-04-11T17:26:43.508Z,11.04
2023-04-11T17:29:10.927Z,10.95
2023-04-11T17:31:37.695Z,10.86
2023-04-11T17:34:04.397Z,10.81
2023-04-11T17:36:30.916Z,10.74
2023-04-11T17:38:57.357Z,10.68
2023-04-11T17:41:23.780Z,10.62
2023-04-11T17:43:50.172Z,10.52
2023-04-11T17:46:16.793Z,10.45
2023-04-11T17:48:43.345Z,10.34
2023-04-11T17:51:09.754Z,10.29
2023-04-11T17:53:36.139Z,10.22
2023-04-11T17:56:04.438Z,10.16
2023-04-11T17:58:31.604Z,10.09
2023-04-11T18:00:58.006Z,10.04
2023-04-11T18:03:26.294Z,9.99
2023-04-11T18:05:54.406Z,9.98
2023-04-11T18:08:26.504Z,9.95
2023-04-11T18:10:59.886Z,9.92
2023-04-11T18:13:27.334Z,9.86
2023-04-11T18:15:53.876Z,9.83
2023-04-11T18:18:20.345Z,9.81
2023-04-11T18:20:46.743Z,9.77
2023-04-11T18:23:13.176Z,9.73
2023-04-11T18:25:39.551Z,9.69
2023-04-11T18:28:06.239Z,9.61
2023-04-11T18:30:32.609Z,9.55
2023-04-11T18:32:59.094Z,9.48
2023-04-11T18:35:25.802Z,9.42
2023-04-11T18:37:53.324Z,9.38
2023-04-11T18:40:19.785Z,9.34
2023-04-11T18:42:50.353Z,9.30
2023-04-11T18:45:20.433Z,9.27
2023-04-11T18:47:47.109Z,9.28
2023-04-11T18:50:14.551Z,9.27
2023-04-11T18:52:41.715Z,9.30
2023-04-11T18:55:09.938Z,9.30
2023-04-11T18:57:37.970Z,9.27
2023-04-11T19:00:18.706Z,9.21
2023-04-11T19:02:46.825Z,9.22
2023-04-11T19:05:14.229Z,9.20
2023-04-11T19:07:42.096Z,9.14
2023-04-11T19:10:10.761Z,9.09
2023-04-11T19:12:37.888Z,9.02
2023-04-11T19:15:08.997Z,8.95
2023-04-11T19:17:36.881Z,8.88
2023-04-11T19:20:12.994Z,8.84
2023-04-11T19:22:40.911Z,8.80
2023-04-11T19:25:10.638Z,8.82
2023-04-11T19:27:40.093Z,8.85
2023-04-11T19:30:08.638Z,8.83
2023-04-11T19:32:38.424Z,8.85
2023-04-11T19:35:08.036Z,8.83
2023-04-11T19:37:35.071Z,8.82
2023-04-11T19:40:01.986Z,8.76
2023-04-11T19:42:32.886Z,8.76
2023-04-11T19:44:59.490Z,8.73
2023-04-11T19:47:25.960Z,8.70
2023-04-11T19:49:52.850Z,8.65
2023-04-11T19:52:19.367Z,8.63
2023-04-11T19:54:46.115Z,8.62
2023-04-11T19:57:12.492Z,8.59
2023-04-11T19:59:38.878Z,8.55
2023-04-11T20:02:06.009Z,8.50
2023-04-11T20:04:32.524Z,8.50
2023-04-11T20:07:00.761Z,8.51
2023-04-11T20:09:30.171Z,8.49
2023-04-11T20:11:56.804Z,8.47
2023-04-11T20:14:23.237Z,8.44
2023-04-11T20:16:49.670Z,8.42
2023-04-11T20:19:16.119Z,8.39
2023-04-11T20:21:42.502Z,8.36
2023-04-11T20:24:12.203Z,8.36
2023-04-11T20:26:38.594Z,8.35
2023-04-11T20:29:05.073Z,8.36
2023-04-11T20:31:31.470Z,8.35
2023-04-11T20:33:58.127Z,8.34
2023-04-11T20:36:25.346Z,8.29
2023-04-11T20:38:51.827Z,8.25
2023-04-11T20:41:19.570Z,8.19
2023-04-11T20:43:46.035Z,8.12
2023-04-11T20:46:13.587Z,8.08
2023-04-11T20:48:42.553Z,8.07
2023-04-11T20:51:09.697Z,8.08
2023-04-11T20:53:36.232Z,8.04
2023-04-11T20:56:03.025Z,8.06
2023-04-11T20:58:29.449Z,8.09
2023-04-11T21:00:57.226Z,8.06
2023-04-11T21:03:24.039Z,8.05
2023-04-11T21:05:50.487Z,8.05
2023-04-11T21:08:16.936Z,8.09
2023-04-11T21:10:43.297Z,8.12
2023-04-11T21:13:09.735Z,8.16
2023-04-11T21:15:36.129Z,8.20
2023-04-11T21:18:03.110Z,8.24
2023-04-11T21:20:30.862Z,8.27
2023-04-11T21:22:58.763Z,8.24
2023-04-11T21:25:25.205Z,8.19
2023-04-11T21:27:51.640Z,8.12
2023-04-11T21:30:18.282Z,8.03
2023-04-11T21:32:44.779Z,7.94
2023-04-11T21:35:12.387Z,7.88
2023-04-11T21:37:39.053Z,7.87
2023-04-11T21:40:06.336Z,7.81
2023-04-11T21:42:32.728Z,7.67
2023-04-11T21:44:59.183Z,7.61
2023-04-11T21:47:25.908Z,7.61
2023-04-11T21:49:52.341Z,7.64
2023-04-11T21:52:18.724Z,7.71
2023-04-11T21:54:45.203Z,7.76
2023-04-11T21:57:11.689Z,7.82
2023-04-11T21:59:39.185Z,7.88
2023-04-11T22:02:06.497Z,7.93
2023-04-11T22:04:39.186Z,7.93
2023-04-11T22:07:15.412Z,7.92
2023-04-11T22:09:46.424Z,7.95
2023-04-11T22:12:17.586Z,7.90
2023-04-11T22:14:45.118Z,8.00
2023-04-11T22:17:12.230Z,8.02
2023-04-11T22:19:42.097Z,8.07
2023-04-11T22:22:08.875Z,8.11
2023-04-11T22:24:38.174Z,8.14
2023-04-11T22:27:06.125Z,8.18
2023-04-11T22:29:34.234Z,8.22
2023-04-11T22:32:03.663Z,8.27
2023-04-11T22:34:30.142Z,8.30
2023-04-11T22:36:57.697Z,8.31
2023-04-11T22:39:25.412Z,8.36
2023-04-11T22:41:52.429Z,8.39
2023-04-11T22:44:19.273Z,8.37
2023-04-11T22:47:08.798Z,8.43
2023-04-11T22:49:41.959Z,8.43
2023-04-11T22:52:10.524Z,8.42
2023-04-11T22:54:38.468Z,8.47
2023-04-11T22:57:04.886Z,8.49
2023-04-11T22:59:31.547Z,8.50
2023-04-11T23:01:58.391Z,8.53
2023-04-11T23:04:24.989Z,8.54
2023-04-11T23:06:51.423Z,8.55
2023-04-11T23:09:18.250Z,8.57
2023-04-11T23:11:46.623Z,8.57
2023-04-11T23:14:15.263Z,8.57
2023-04-11T23:16:43.306Z,8.58
2023-04-11T23:19:10.357Z,8.60
2023-04-11T23:21:39.630Z,8.59
2023-04-11T23:24:09.916Z,8.55
2023-04-11T23:26:36.922Z,8.52
2023-04-11T23:29:03.541Z,8.48
2023-04-11T23:31:31.397Z,8.45
2023-04-11T23:33:58.191Z,8.42
2023-04-11T23:36:24.862Z,8.41
2023-04-11T23:38:51.710Z,8.40
2023-04-11T23:41:18.624Z,8.41
2023-04-11T23:43:45.084Z,8.40
2023-04-11T23:46:12.510Z,8.40
2023-04-11T23:48:38.987Z,8.39
2023-04-11T23:51:06.296Z,8.36
2023-04-11T23:53:32.687Z,8.34
2023-04-11T23:55:59.118Z,8.29
2023-04-11T23:58:25.539Z,8.23
